Mon, 06 Dec 2021 06:46:56 UTC

Information for RPM brotli-1.0.7-14.fc34.ppc64le.rpm

ID22785330
Namebrotli
Version1.0.7
Release14.fc34
Epoch
Archppc64le
SummaryLossless compression algorithm
DescriptionBrotli is a generic-purpose lossless compression algorithm that compresses data using a combination of a modern variant of the LZ77 algorithm, Huffman coding and 2nd order context modeling, with a compression ratio comparable to the best currently available general-purpose compression methods. It is similar in speed with deflate but offers more dense compression.
Build Time2020-08-12 01:16:01 GMT
Size355,121
252f71f5592b87285fa215800ab0be15
LicenseMIT
Buildrootf34-build-22132541-1880607
Provides
brotli = 1.0.7-14.fc34
brotli(ppc-64) = 1.0.7-14.fc34
Obsoletes No Obsoletes
Conflicts No Conflicts
Requires
libbrotli(ppc-64) = 1.0.7-14.fc34
libc.so.6()(64bit)
libc.so.6(GLIBC_2.17)(64bit)
libm.so.6()(64bit)
libm.so.6(GLIBC_2.29)(64bit)
rpmlib(CompressedFileNames) <= 3.0.4-1
rpmlib(FileDigests) <= 4.6.0-1
rpmlib(PayloadFilesHavePrefix) <= 4.0-1
rpmlib(PayloadIsZstd) <= 5.4.18-1
rtld(GNU_HASH)
Recommends No Recommends
Suggests No Suggests
Supplements No Supplements
Enhances No Enhances
Files
1 through 4 of 4
Name ascending sort Size
/usr/bin/brotli792,888
/usr/lib/.build-id0
/usr/lib/.build-id/290
/usr/lib/.build-id/29/3530b1d2e0a691224205238f3a1d31da8d2e6a26
Component of
Page:
1 through 50 of 20236 >>>
Buildroot descending sort Created State
f34-build-23112034-2171655 2020-09-30 19:34:47 expired
f34-build-23111972-2171556 2020-09-30 19:25:00 expired
f34-build-23111969-2171556 2020-09-30 19:24:55 expired
f34-build-23111953-2171534 2020-09-30 19:23:01 expired
f34-build-23111925-2171453 2020-09-30 19:16:57 expired
f34-build-23111814-2171196 2020-09-30 18:53:53 expired
f34-build-23111805-2171196 2020-09-30 18:52:37 expired
f34-build-23111735-2171052 2020-09-30 18:31:15 expired
f34-build-23111728-2171052 2020-09-30 18:29:51 expired
f34-build-23111685-2171052 2020-09-30 18:26:24 expired
f34-build-23111510-2170854 2020-09-30 17:56:00 expired
f34-build-23111506-2170854 2020-09-30 17:55:52 expired
f34-build-23111494-2170854 2020-09-30 17:55:21 expired
f34-build-23111483-2170854 2020-09-30 17:55:05 expired
f34-build-23111476-2170854 2020-09-30 17:55:00 expired
f34-build-23111441-2170820 2020-09-30 17:51:05 expired
f34-build-23111349-2170745 2020-09-30 17:34:36 expired
f34-build-23111340-2170745 2020-09-30 17:34:19 expired
f34-build-23111326-2170745 2020-09-30 17:33:56 expired
f34-build-23111302-2170745 2020-09-30 17:33:38 expired
f34-build-23111289-2170745 2020-09-30 17:33:27 expired
f34-build-23111099-2170372 2020-09-30 17:02:42 expired
f34-build-23111088-2170372 2020-09-30 17:01:28 expired
f34-build-23111087-2170372 2020-09-30 17:01:24 expired
f34-build-23111084-2170372 2020-09-30 17:01:16 expired
f34-build-23111049-2170372 2020-09-30 16:59:27 expired
f34-build-23110966-2170282 2020-09-30 16:48:06 expired
f34-build-23110854-2170238 2020-09-30 16:35:47 expired
f34-build-23110853-2170238 2020-09-30 16:35:45 expired
f34-build-23110849-2170238 2020-09-30 16:35:22 expired
f34-build-23110843-2170238 2020-09-30 16:35:10 expired
f34-build-23110794-2170200 2020-09-30 16:24:04 expired
f34-build-23110785-2170200 2020-09-30 16:23:40 expired
f34-build-23110778-2170200 2020-09-30 16:23:24 expired
f34-build-23110769-2170200 2020-09-30 16:23:04 expired
f34-build-23110762-2170200 2020-09-30 16:23:03 expired
f34-build-23110761-2170200 2020-09-30 16:23:03 expired
f34-build-23110749-2170200 2020-09-30 16:22:43 expired
f34-build-23110715-2170200 2020-09-30 16:14:23 expired
f34-build-23110707-2170200 2020-09-30 16:14:04 expired
f34-build-23110694-2170200 2020-09-30 16:13:44 expired
f34-build-23110686-2170200 2020-09-30 16:13:22 expired
f34-build-23110620-2170200 2020-09-30 16:06:29 expired
f34-build-23110608-2170200 2020-09-30 16:06:08 expired
f34-build-23110601-2170200 2020-09-30 16:05:51 expired
f34-build-23110537-2170015 2020-09-30 15:59:40 expired
f34-build-23110525-2170015 2020-09-30 15:59:12 expired
f34-build-23110461-2170015 2020-09-30 15:49:19 expired
f34-build-23110449-2170015 2020-09-30 15:48:59 expired
f34-build-23110393-2170015 2020-09-30 15:40:42 expired